Time;durP1;ratioP1;P1;durP2;ratioP2;P2;SDS_P1;SDS_P2;PMS_P1;PMS_P2;Temp;Humidity;BMP_temperature;BMP_pressure;BME280_temperature;BME280_humidity;BME280_pressure;Samples;Min_cycle;Max_cycle;Signal;HPM_P1;HPM_P2
2021/01/08 00:00:26;;;;;;;1.88;1.38;;;4.20;99.90;;;;;;4867652;29;20033;-87
2021/01/08 00:02:53;;;;;;;5.57;1.45;;;4.10;99.90;;;;;;4864520;29;20403;-81
2021/01/08 00:05:18;;;;;;;3.80;1.42;;;4.20;99.90;;;;;;4860524;29;20463;-80
2021/01/08 00:07:44;;;;;;;7.20;1.83;;;4.20;99.90;;;;;;4857637;29;20026;-79
2021/01/08 00:10:10;;;;;;;4.82;1.33;;;4.10;99.90;;;;;;4854943;29;20052;-79
2021/01/08 00:12:37;;;;;;;2.72;1.20;;;4.10;99.90;;;;;;4854313;29;20037;-78
2021/01/08 00:15:07;;;;;;;3.83;1.25;;;4.20;99.90;;;;;;4857524;29;20482;-79
2021/01/08 00:17:32;;;;;;;3.90;1.20;;;4.20;99.90;;;;;;4852715;29;20501;-78
2021/01/08 00:19:59;;;;;;;3.13;1.23;;;4.20;99.90;;;;;;4858416;29;20030;-79
2021/01/08 00:22:25;;;;;;;3.28;1.60;;;4.20;99.90;;;;;;4855476;29;20042;-79
2021/01/08 00:24:51;;;;;;;2.75;1.40;;;4.20;99.90;;;;;;4854534;29;20033;-79
2021/01/08 00:27:18;;;;;;;6.35;1.73;;;4.20;99.90;;;;;;4856908;29;20093;-79
2021/01/08 00:29:43;;;;;;;3.42;1.17;;;4.20;99.90;;;;;;4858204;29;20040;-79
2021/01/08 00:32:10;;;;;;;2.03;1.58;;;4.10;99.90;;;;;;4857663;29;20386;-78
2021/01/08 00:34:36;;;;;;;5.30;1.17;;;4.10;99.90;;;;;;4857583;29;20033;-78
2021/01/08 00:37:01;;;;;;;2.97;1.10;;;4.10;99.90;;;;;;4855244;29;20034;-78
2021/01/08 00:39:27;;;;;;;4.30;1.27;;;4.10;99.90;;;;;;4856330;29;20562;-79
2021/01/08 00:41:53;;;;;;;4.03;1.30;;;4.10;99.90;;;;;;4854168;29;20464;-77
2021/01/08 00:44:19;;;;;;;4.43;1.27;;;4.10;99.90;;;;;;4853594;29;20029;-78
2021/01/08 00:46:46;;;;;;;3.08;1.30;;;4.10;99.90;;;;;;4859373;29;20053;-78
2021/01/08 00:49:13;;;;;;;4.43;1.45;;;4.10;99.90;;;;;;4843845;29;20033;-78
2021/01/08 00:51:39;;;;;;;4.03;1.38;;;4.00;99.90;;;;;;4858936;29;20033;-78
2021/01/08 00:54:05;;;;;;;6.07;1.73;;;4.00;99.90;;;;;;4846163;29;20029;-79
2021/01/08 00:56:31;;;;;;;5.22;1.20;;;4.00;99.90;;;;;;4840116;29;20034;-78
2021/01/08 00:58:58;;;;;;;5.85;1.48;;;4.00;99.90;;;;;;4842154;29;20482;-78
2021/01/08 01:01:24;;;;;;;2.33;1.30;;;4.10;99.90;;;;;;4846777;29;20030;-77
2021/01/08 01:03:50;;;;;;;2.30;1.17;;;4.00;99.90;;;;;;4846192;29;20034;-78
2021/01/08 01:06:26;;;;;;;5.70;0.90;;;4.00;99.90;;;;;;4857816;29;20033;-79
2021/01/08 01:08:53;;;;;;;1.48;1.10;;;4.00;99.90;;;;;;4848651;29;20026;-78
2021/01/08 01:11:20;;;;;;;4.78;0.88;;;4.00;99.90;;;;;;4844010;29;20032;-79
2021/01/08 01:13:46;;;;;;;2.60;1.13;;;4.00;99.90;;;;;;4847146;29;20036;-77
2021/01/08 01:16:13;;;;;;;2.65;0.80;;;4.00;99.90;;;;;;4856082;29;20045;-78
2021/01/08 01:18:39;;;;;;;6.05;1.10;;;3.90;99.90;;;;;;4847331;29;20390;-79
2021/01/08 01:21:05;;;;;;;2.05;1.50;;;3.90;99.90;;;;;;4848602;29;20033;-80
2021/01/08 01:23:31;;;;;;;0.98;0.88;;;3.90;99.90;;;;;;4845215;29;20036;-79
2021/01/08 01:25:56;;;;;;;4.13;1.20;;;4.00;99.90;;;;;;4860272;29;20402;-80
2021/01/08 01:28:22;;;;;;;1.08;0.98;;;4.00;99.90;;;;;;4857940;29;20041;-78
2021/01/08 01:30:48;;;;;;;2.08;1.23;;;3.90;99.90;;;;;;4846439;29;20033;-79
2021/01/08 01:33:14;;;;;;;2.58;1.13;;;3.90;99.90;;;;;;4846855;29;20026;-78
2021/01/08 01:35:39;;;;;;;1.67;1.35;;;3.90;99.90;;;;;;4846059;29;20037;-78
2021/01/08 01:38:05;;;;;;;2.40;1.10;;;3.90;99.90;;;;;;4858763;29;20383;-78
2021/01/08 01:40:31;;;;;;;3.28;1.00;;;3.90;99.90;;;;;;4859462;29;20025;-79
2021/01/08 01:42:57;;;;;;;3.13;1.30;;;3.90;99.90;;;;;;4856867;29;20275;-79
2021/01/08 01:45:23;;;;;;;2.13;1.05;;;3.90;99.90;;;;;;4863739;29;20053;-78
2021/01/08 01:47:50;;;;;;;1.63;1.20;;;3.90;99.90;;;;;;4861274;29;20127;-79
2021/01/08 01:50:16;;;;;;;1.50;0.98;;;4.00;99.90;;;;;;4852814;29;20025;-78
2021/01/08 01:52:42;;;;;;;4.60;1.48;;;4.00;99.90;;;;;;4862347;29;20444;-77
2021/01/08 01:55:08;;;;;;;4.70;1.30;;;4.00;99.90;;;;;;4866918;29;20030;-79
2021/01/08 01:57:34;;;;;;;1.48;1.00;;;4.00;99.90;;;;;;4854420;29;20077;-78
2021/01/08 01:59:59;;;;;;;2.85;1.25;;;4.00;99.90;;;;;;4852197;29;20479;-79
2021/01/08 02:02:52;;;;;;;1.20;1.08;;;4.00;99.90;;;;;;4850984;29;20101;-80
2021/01/08 02:05:19;;;;;;;2.40;1.10;;;4.10;99.90;;;;;;4861938;29;20061;-79
2021/01/08 02:08:12;;;;;;;1.43;1.33;;;4.00;99.90;;;;;;4845805;29;20033;-79
2021/01/08 02:10:47;;;;;;;3.33;1.35;;;4.10;99.90;;;;;;4862886;29;20482;-79
2021/01/08 02:13:22;;;;;;;1.20;1.10;;;4.10;99.90;;;;;;4849871;29;20025;-79
2021/01/08 02:15:48;;;;;;;1.20;1.00;;;4.10;99.90;;;;;;4851380;29;20053;-79
2021/01/08 02:18:16;;;;;;;3.20;1.33;;;4.00;99.90;;;;;;4870593;29;20034;-80
2021/01/08 02:20:43;;;;;;;2.72;1.17;;;4.00;99.90;;;;;;4846680;29;20033;-79
2021/01/08 02:23:23;;;;;;;3.50;1.67;;;4.10;99.90;;;;;;4850712;29;20021;-79
2021/01/08 02:25:50;;;;;;;3.58;1.50;;;4.00;99.90;;;;;;4855124;29;20034;-80
2021/01/08 02:28:21;;;;;;;5.10;1.38;;;4.00;99.90;;;;;;4846794;29;20485;-79
2021/01/08 02:30:49;;;;;;;3.15;1.58;;;4.00;99.90;;;;;;4859903;29;20017;-79
2021/01/08 02:33:15;;;;;;;;;;;4.00;99.90;;;;;;4861740;29;20067;-80
2021/01/08 02:35:42;;;;;;;4.97;1.60;;;4.00;99.90;;;;;;4857740;29;20329;-80
2021/01/08 02:38:10;;;;;;;1.42;1.27;;;4.00;99.90;;;;;;4859470;29;20021;-79
2021/01/08 02:40:37;;;;;;;;;;;4.10;99.90;;;;;;4861049;29;20509;-79
2021/01/08 02:43:04;;;;;;;3.03;1.95;;;4.00;99.90;;;;;;4854315;29;19923;-79
2021/01/08 02:45:31;;;;;;;5.75;1.70;;;4.00;99.90;;;;;;4847808;29;20101;-80
2021/01/08 02:47:57;;;;;;;4.93;1.73;;;4.00;99.90;;;;;;4862670;29;20040;-80
2021/01/08 02:50:23;;;;;;;3.15;1.60;;;4.00;99.90;;;;;;4859307;29;20479;-80
2021/01/08 02:52:52;;;;;;;6.22;2.00;;;4.00;99.90;;;;;;4861451;29;20037;-80
2021/01/08 02:55:22;;;;;;;4.95;1.85;;;4.00;99.90;;;;;;4859806;29;20051;-79
2021/01/08 02:57:49;;;;;;;2.67;1.83;;;4.10;99.90;;;;;;4861022;29;20040;-79
2021/01/08 03:00:16;;;;;;;4.85;1.70;;;4.10;99.90;;;;;;4861541;29;20025;-79
2021/01/08 03:02:42;;;;;;;3.88;1.85;;;4.10;99.90;;;;;;4860707;29;20044;-79
2021/01/08 03:05:09;;;;;;;7.72;2.00;;;4.20;99.90;;;;;;4862976;29;20029;-80
2021/01/08 03:07:35;;;;;;;4.35;2.05;;;4.20;99.90;;;;;;4862774;29;20108;-79
2021/01/08 03:10:01;;;;;;;2.85;1.83;;;4.20;99.90;;;;;;4859270;29;20080;-80
2021/01/08 03:12:31;;;;;;;4.88;1.63;;;4.20;99.90;;;;;;4859671;29;20517;-77
2021/01/08 03:14:59;;;;;;;4.22;2.10;;;4.20;99.90;;;;;;4861825;29;20037;-78
2021/01/08 03:17:24;;;;;;;1.88;1.17;;;4.20;99.90;;;;;;4859832;29;20030;-78
2021/01/08 03:19:50;;;;;;;2.03;1.80;;;4.20;99.90;;;;;;4856605;29;20036;-78
2021/01/08 03:22:16;;;;;;;6.18;2.00;;;4.30;99.90;;;;;;4869862;29;20037;-77
2021/01/08 03:24:41;;;;;;;2.55;1.88;;;4.30;99.90;;;;;;4862437;29;20170;-77
2021/01/08 03:27:07;;;;;;;4.10;1.48;;;4.30;99.90;;;;;;4868636;29;20025;-78
2021/01/08 03:29:33;;;;;;;4.68;1.65;;;4.20;99.90;;;;;;4874005;29;20018;-78
2021/01/08 03:31:58;;;;;;;7.60;2.60;;;4.10;99.90;;;;;;4859826;29;20029;-78
2021/01/08 03:34:24;;;;;;;7.13;1.75;;;4.10;99.90;;;;;;4862006;29;20029;-78
2021/01/08 03:36:49;;;;;;;3.70;2.33;;;4.10;99.90;;;;;;4862954;29;20098;-78
2021/01/08 03:39:15;;;;;;;4.80;1.75;;;4.20;99.90;;;;;;4862713;29;20152;-78
2021/01/08 03:41:41;;;;;;;3.38;1.88;;;4.20;99.90;;;;;;4876629;29;20033;-78
2021/01/08 03:44:06;;;;;;;4.32;1.80;;;4.10;99.90;;;;;;4861007;29;20093;-77
2021/01/08 03:46:36;;;;;;;2.75;1.80;;;4.20;99.90;;;;;;4860136;29;20053;-78
2021/01/08 03:49:05;;;;;;;3.28;1.65;;;4.20;99.90;;;;;;4864660;29;20027;-79
2021/01/08 03:51:30;;;;;;;2.83;1.50;;;4.20;99.90;;;;;;4859715;29;20026;-78
2021/01/08 03:53:56;;;;;;;4.13;1.40;;;4.20;99.90;;;;;;4864952;29;20086;-79
2021/01/08 03:56:22;;;;;;;4.00;1.83;;;4.20;99.90;;;;;;4851002;29;20038;-78
2021/01/08 03:58:48;;;;;;;3.17;1.45;;;4.20;99.90;;;;;;4866365;29;20116;-79
2021/01/08 04:01:13;;;;;;;3.47;1.30;;;4.20;99.90;;;;;;4863850;29;20032;-79
2021/01/08 04:03:39;;;;;;;2.80;1.45;;;4.20;99.90;;;;;;4860657;29;20030;-78
2021/01/08 04:06:05;;;;;;;6.90;1.60;;;4.20;99.90;;;;;;4862846;29;20410;-79
2021/01/08 04:08:30;;;;;;;4.38;1.70;;;4.10;99.90;;;;;;4865105;29;20434;-79
2021/01/08 04:10:56;;;;;;;3.67;1.50;;;4.10;99.90;;;;;;4862250;29;20026;-78
2021/01/08 04:13:22;;;;;;;5.53;2.05;;;4.20;99.90;;;;;;4858614;29;20098;-78
2021/01/08 04:15:48;;;;;;;4.57;1.33;;;4.10;99.90;;;;;;4857715;29;20085;-79
2021/01/08 04:18:13;;;;;;;3.33;1.92;;;4.20;99.90;;;;;;4856582;29;20025;-78
2021/01/08 04:20:39;;;;;;;1.95;1.30;;;4.20;99.90;;;;;;4858824;29;20403;-80
2021/01/08 04:23:04;;;;;;;2.88;1.25;;;4.20;99.90;;;;;;4864420;29;20037;-80
2021/01/08 04:25:30;;;;;;;4.05;1.50;;;4.10;99.90;;;;;;4864224;29;20037;-80
2021/01/08 04:27:56;;;;;;;3.55;1.70;;;4.10;99.90;;;;;;4865704;29;20058;-79
2021/01/08 04:30:23;;;;;;;3.90;2.10;;;4.10;99.90;;;;;;4866223;29;20049;-79
2021/01/08 04:32:49;;;;;;;4.13;1.35;;;4.10;99.90;;;;;;4871333;29;20116;-79
2021/01/08 04:35:15;;;;;;;2.63;1.17;;;4.10;99.90;;;;;;4864012;29;20074;-79
2021/01/08 04:37:41;;;;;;;3.65;1.35;;;4.10;99.90;;;;;;4873418;29;20029;-80
2021/01/08 04:40:08;;;;;;;5.38;1.42;;;4.20;99.90;;;;;;4862040;29;20024;-79
2021/01/08 04:42:35;;;;;;;4.50;1.25;;;4.20;99.90;;;;;;4863034;29;20033;-80
2021/01/08 04:45:05;;;;;;;2.42;1.33;;;4.20;99.90;;;;;;4864100;29;20165;-80
2021/01/08 04:47:33;;;;;;;3.17;1.85;;;4.20;99.90;;;;;;4867772;29;20505;-79
2021/01/08 04:50:02;;;;;;;4.05;1.67;;;4.20;99.90;;;;;;4866077;29;20061;-80
2021/01/08 04:52:29;;;;;;;1.27;1.17;;;4.20;99.90;;;;;;4856205;29;20056;-79
2021/01/08 04:54:55;;;;;;;3.83;1.27;;;4.20;99.90;;;;;;4857877;29;20139;-80
2021/01/08 04:57:23;;;;;;;3.58;1.45;;;4.20;99.90;;;;;;4857603;29;20033;-79
2021/01/08 04:59:50;;;;;;;2.35;1.63;;;4.10;99.90;;;;;;4856251;29;20053;-79
2021/01/08 05:02:16;;;;;;;2.08;1.40;;;4.10;99.90;;;;;;4856174;29;20030;-79
2021/01/08 05:04:42;;;;;;;1.52;1.40;;;4.10;99.90;;;;;;4856542;29;20040;-79
2021/01/08 05:07:08;;;;;;;5.50;1.58;;;4.10;99.90;;;;;;4855232;29;20112;-79
2021/01/08 05:09:33;;;;;;;1.50;1.30;;;4.10;99.90;;;;;;4857517;29;20120;-78
2021/01/08 05:12:00;;;;;;;1.63;1.13;;;4.10;99.90;;;;;;4854850;29;20026;-79
2021/01/08 05:14:28;;;;;;;1.10;1.00;;;4.10;99.90;;;;;;4860738;29;20112;-79
2021/01/08 05:16:57;;;;;;;1.83;1.10;;;4.10;99.90;;;;;;4860071;29;20491;-78
2021/01/08 05:19:26;;;;;;;1.80;1.58;;;4.10;99.90;;;;;;4860305;29;20026;-79
2021/01/08 05:21:55;;;;;;;2.22;1.30;;;4.10;99.90;;;;;;4859835;29;20037;-79
2021/01/08 05:24:23;;;;;;;2.08;1.23;;;4.00;99.90;;;;;;4859915;29;20037;-79
2021/01/08 05:26:49;;;;;;;1.42;1.27;;;4.00;99.90;;;;;;4854652;29;20029;-79
2021/01/08 05:29:15;;;;;;;2.53;1.30;;;4.00;99.90;;;;;;4857134;29;21869;-80
2021/01/08 05:31:42;;;;;;;1.67;1.17;;;4.00;99.90;;;;;;4869459;29;20505;-79
2021/01/08 05:34:08;;;;;;;6.20;1.30;;;4.00;99.90;;;;;;4855330;29;20519;-78
2021/01/08 05:36:36;;;;;;;2.97;1.25;;;4.00;99.90;;;;;;4857038;29;20026;-78
2021/01/08 05:39:03;;;;;;;2.35;1.77;;;4.00;99.90;;;;;;4856095;29;20033;-79
2021/01/08 05:41:32;;;;;;;4.40;1.10;;;3.90;99.90;;;;;;4855547;29;20509;-78
2021/01/08 05:43:59;;;;;;;1.58;1.35;;;3.90;99.90;;;;;;4857116;29;20077;-77
2021/01/08 05:46:34;;;;;;;1.67;1.30;;;3.90;99.90;;;;;;4820333;29;745383;-78
2021/01/08 05:49:07;;;;;;;1.75;1.65;;;3.90;99.90;;;;;;4849443;29;20395;-79
2021/01/08 05:51:36;;;;;;;1.88;1.70;;;3.90;99.90;;;;;;4855910;29;20026;-78
2021/01/08 05:54:03;;;;;;;2.28;1.77;;;3.90;99.90;;;;;;4869523;29;20132;-80
2021/01/08 05:56:34;;;;;;;2.83;1.75;;;3.90;99.90;;;;;;4854771;29;20025;-78
2021/01/08 05:59:10;;;;;;;5.95;1.90;;;3.80;99.90;;;;;;4871931;29;20482;-78
2021/01/08 06:01:38;;;;;;;2.67;1.80;;;3.90;99.90;;;;;;4858303;29;20045;-79
2021/01/08 06:04:04;;;;;;;7.20;2.90;;;3.80;99.90;;;;;;4858663;29;20048;-79
2021/01/08 06:06:40;;;;;;;1.58;1.38;;;3.80;99.90;;;;;;4859764;29;20372;-77
2021/01/08 06:09:06;;;;;;;2.47;1.83;;;3.80;99.90;;;;;;4860953;29;20554;-78
2021/01/08 06:11:36;;;;;;;3.92;2.20;;;3.80;99.90;;;;;;4852226;29;20499;-79
2021/01/08 06:14:03;;;;;;;5.25;2.58;;;3.70;99.90;;;;;;4844471;29;20388;-78
2021/01/08 06:16:42;;;;;;;4.80;1.77;;;3.80;99.90;;;;;;4861133;29;20471;-79
2021/01/08 06:19:09;;;;;;;4.70;2.10;;;3.80;99.90;;;;;;4856598;29;20034;-79
2021/01/08 06:21:45;;;;;;;4.18;1.92;;;3.80;99.90;;;;;;4863483;29;20029;-79
2021/01/08 06:24:24;;;;;;;2.78;2.20;;;3.80;99.90;;;;;;4863101;29;20470;-79
2021/01/08 06:26:50;;;;;;;5.38;2.90;;;3.80;99.90;;;;;;4871336;29;20033;-79
2021/01/08 06:29:18;;;;;;;5.25;2.97;;;3.80;99.90;;;;;;4862698;29;20036;-80
2021/01/08 06:31:57;;;;;;;4.72;2.97;;;3.90;99.90;;;;;;4862051;29;20029;-79
2021/01/08 06:34:24;;;;;;;4.05;2.70;;;3.90;99.90;;;;;;4873475;29;20502;-80
2021/01/08 06:37:10;;;;;;;3.97;2.53;;;3.90;99.90;;;;;;4861412;29;20116;-81
2021/01/08 06:39:42;;;;;;;7.18;2.85;;;4.00;99.90;;;;;;4862692;29;20522;-80
2021/01/08 06:42:09;;;;;;;9.77;3.38;;;4.00;99.90;;;;;;4862832;29;20037;-80
2021/01/08 06:44:35;;;;;;;4.78;2.60;;;4.00;99.90;;;;;;4862835;29;20033;-80
2021/01/08 06:47:03;;;;;;;4.25;3.08;;;4.10;99.90;;;;;;4860309;29;20105;-79
2021/01/08 06:49:40;;;;;;;9.00;3.03;;;4.10;99.90;;;;;;4859907;29;20068;-80
2021/01/08 06:52:05;;;;;;;5.05;3.08;;;4.10;99.90;;;;;;4859681;29;20029;-80
2021/01/08 06:54:39;;;;;;;4.05;2.72;;;4.10;99.90;;;;;;4860862;29;20045;-79
2021/01/08 06:57:10;;;;;;;4.28;2.72;;;4.10;99.90;;;;;;4862873;29;20033;-80
2021/01/08 06:59:43;;;;;;;5.70;3.00;;;4.20;99.90;;;;;;4862724;29;20124;-80
2021/01/08 07:02:14;;;;;;;9.45;3.38;;;4.10;99.90;;;;;;4852229;29;20040;-78
2021/01/08 07:04:40;;;;;;;4.60;2.72;;;4.10;99.90;;;;;;4859327;29;20041;-79
2021/01/08 07:07:12;;;;;;;6.25;3.00;;;4.20;99.90;;;;;;4870483;29;20434;-79
2021/01/08 07:09:40;;;;;;;4.70;3.15;;;4.20;99.90;;;;;;4855876;29;20057;-79
2021/01/08 07:12:08;;;;;;;6.53;2.92;;;4.20;99.90;;;;;;4857430;29;20041;-79
2021/01/08 07:14:37;;;;;;;;;;;4.20;99.90;;;;;;4858394;29;20386;-79
2021/01/08 07:17:14;;;;;;;6.65;2.42;;;4.20;99.90;;;;;;4860803;29;19912;-80
2021/01/08 07:19:42;;;;;;;5.73;2.97;;;4.20;99.90;;;;;;4860454;29;20028;-79
2021/01/08 07:22:12;;;;;;;3.95;2.80;;;4.20;99.90;;;;;;4860093;29;20038;-79
2021/01/08 07:24:38;;;;;;;3.90;2.85;;;4.20;99.90;;;;;;4865210;29;20033;-79
2021/01/08 07:27:19;;;;;;;8.55;2.97;;;4.20;99.90;;;;;;4862558;29;20025;-79
2021/01/08 07:29:59;;;;;;;4.05;2.22;;;4.20;99.90;;;;;;4865044;29;20029;-79
2021/01/08 07:32:43;;;;;;;5.68;2.42;;;4.20;99.90;;;;;;4862671;29;20022;-79
2021/01/08 07:35:23;;;;;;;13.88;2.90;;;4.10;99.90;;;;;;4864693;29;20407;-80
2021/01/08 07:38:08;;;;;;;4.28;2.55;;;4.10;99.90;;;;;;4855927;29;20081;-78
2021/01/08 07:40:36;;;;;;;4.07;2.30;;;4.10;99.90;;;;;;4856096;29;20029;-76
2021/01/08 07:43:03;;;;;;;;;;;4.10;99.90;;;;;;4858552;29;20033;-76
2021/01/08 07:45:58;;;;;;;3.63;2.30;;;4.10;99.90;;;;;;4861017;29;19919;-76
2021/01/08 07:48:28;;;;;;;3.45;1.92;;;4.00;99.90;;;;;;4848556;29;20299;-79
2021/01/08 07:51:07;;;;;;;5.35;2.22;;;4.10;99.90;;;;;;4837721;29;20045;-78
2021/01/08 07:53:47;;;;;;;7.75;2.55;;;4.10;99.90;;;;;;4855135;29;20940;-77
2021/01/08 07:56:26;;;;;;;4.00;2.40;;;4.10;99.90;;;;;;4861869;29;20126;-79
2021/01/08 07:59:05;;;;;;;2.88;2.03;;;4.10;99.90;;;;;;4843413;29;20156;-76
2021/01/08 08:01:34;;;;;;;7.03;2.42;;;4.00;99.90;;;;;;4851088;29;20077;-77
2021/01/08 08:04:07;;;;;;;5.75;2.45;;;4.00;99.90;;;;;;4852469;29;20033;-76
2021/01/08 08:06:40;;;;;;;5.30;2.85;;;4.10;99.90;;;;;;4854187;29;20025;-76
2021/01/08 08:09:10;;;;;;;5.20;2.58;;;4.00;99.90;;;;;;4844097;29;20141;-76
2021/01/08 08:11:36;;;;;;;6.50;2.55;;;4.10;99.90;;;;;;4841037;29;20033;-76
2021/01/08 08:14:09;;;;;;;4.90;1.80;;;4.20;99.90;;;;;;4842594;29;20038;-76
2021/01/08 08:16:36;;;;;;;5.60;2.47;;;4.20;99.90;;;;;;4851565;29;20097;-77
2021/01/08 08:19:03;;;;;;;6.50;2.15;;;4.20;99.90;;;;;;4843006;29;20136;-78
2021/01/08 08:21:29;;;;;;;3.88;1.95;;;4.20;99.90;;;;;;4858378;29;20029;-77
2021/01/08 08:23:56;;;;;;;8.90;3.05;;;4.20;99.90;;;;;;4838248;29;20065;-77
2021/01/08 08:26:25;;;;;;;6.82;2.80;;;4.20;99.90;;;;;;4852492;29;20490;-79
2021/01/08 08:29:15;;;;;;;4.70;2.08;;;4.20;99.90;;;;;;4858414;29;20033;-76
2021/01/08 08:31:46;;;;;;;5.07;2.15;;;4.10;99.90;;;;;;4841196;29;20030;-75
2021/01/08 08:34:13;;;;;;;2.92;1.73;;;4.10;99.90;;;;;;4841460;29;20402;-77
2021/01/08 08:36:41;;;;;;;1.83;1.73;;;4.10;99.90;;;;;;4843330;29;20082;-75
2021/01/08 08:39:12;;;;;;;2.33;1.80;;;4.10;99.90;;;;;;4855777;29;20046;-74
2021/01/08 08:41:44;;;;;;;3.70;1.98;;;4.10;99.90;;;;;;4839716;29;20049;-75
2021/01/08 08:44:17;;;;;;;3.45;2.05;;;4.10;99.90;;;;;;4842691;29;20042;-75
2021/01/08 08:46:45;;;;;;;2.72;1.80;;;4.10;99.90;;;;;;4857921;29;20058;-75
2021/01/08 08:49:12;;;;;;;5.65;2.03;;;4.10;99.90;;;;;;4845310;29;20029;-75
2021/01/08 08:51:43;;;;;;;2.70;2.25;;;4.20;99.90;;;;;;4851248;29;20025;-74
2021/01/08 08:54:09;;;;;;;8.98;1.83;;;4.20;99.90;;;;;;4843245;29;20028;-73
2021/01/08 08:56:54;;;;;;;6.13;2.00;;;4.20;99.90;;;;;;4845323;29;20037;-81
2021/01/08 08:59:40;;;;;;;2.65;2.05;;;4.20;99.90;;;;;;4856988;29;20032;-75
2021/01/08 09:12:55;;;;;;;3.03;1.90;;;4.40;99.90;;;;;;4860682;29;20069;-78
2021/01/08 09:15:31;;;;;;;3.47;1.60;;;4.40;99.90;;;;;;4820839;29;20034;-78
2021/01/08 09:18:35;;;;;;;2.47;1.42;;;4.40;99.90;;;;;;4858175;29;20021;-76
2021/01/08 09:21:20;;;;;;;3.70;1.75;;;4.50;99.90;;;;;;4827250;29;20747;-75
2021/01/08 09:23:49;;;;;;;5.78;1.65;;;4.40;99.90;;;;;;4861600;29;20021;-76
2021/01/08 09:26:18;;;;;;;5.75;1.85;;;4.40;99.90;;;;;;4845896;29;20305;-76
2021/01/08 09:28:46;;;;;;;4.05;1.90;;;4.40;99.90;;;;;;4847443;29;20066;-75
2021/01/08 09:31:12;;;;;;;;;;;4.40;99.90;;;;;;4844169;29;20053;-76
2021/01/08 09:33:38;;;;;;;1.58;1.48;;;4.40;99.90;;;;;;4845809;29;19995;-78
2021/01/08 09:36:05;;;;;;;2.67;1.88;;;4.40;99.90;;;;;;4851105;29;20094;-73
2021/01/08 09:38:33;;;;;;;2.33;1.88;;;4.50;99.90;;;;;;4841788;29;20104;-74
2021/01/08 09:40:59;;;;;;;1.73;1.60;;;4.50;99.90;;;;;;4839358;29;20041;-74
2021/01/08 09:43:25;;;;;;;2.45;2.22;;;4.40;99.90;;;;;;4864723;29;20358;-74
2021/01/08 09:46:07;;;;;;;4.25;2.15;;;4.40;99.90;;;;;;4843720;29;20124;-73
2021/01/08 09:48:34;;;;;;;2.97;1.90;;;4.50;99.90;;;;;;4856851;29;20022;-77
2021/01/08 09:51:07;;;;;;;3.90;2.63;;;4.50;99.90;;;;;;4854995;29;20084;-77
2021/01/08 09:53:36;;;;;;;3.10;2.00;;;4.60;99.90;;;;;;4856726;29;20169;-76
2021/01/08 09:56:15;;;;;;;3.70;1.95;;;4.70;99.90;;;;;;4859682;29;20487;-76
2021/01/08 09:58:42;;;;;;;2.15;2.00;;;4.70;99.90;;;;;;4851441;29;20040;-77
2021/01/08 10:01:10;;;;;;;4.88;2.08;;;4.70;99.90;;;;;;4856223;29;20068;-80
2021/01/08 10:03:36;;;;;;;2.25;1.73;;;4.90;99.90;;;;;;4860632;29;20029;-78
2021/01/08 10:06:13;;;;;;;2.78;1.95;;;4.90;99.90;;;;;;4860223;29;20045;-77
2021/01/08 10:08:39;;;;;;;2.42;1.88;;;4.90;99.90;;;;;;4858262;29;20033;-78
2021/01/08 10:11:07;;;;;;;1.60;1.50;;;4.90;99.90;;;;;;4862077;29;20044;-81
2021/01/08 10:13:34;;;;;;;;;;;4.90;99.90;;;;;;4861132;29;20120;-76
2021/01/08 10:16:08;;;;;;;1.40;1.30;;;4.90;99.90;;;;;;4860129;29;19912;-79
2021/01/08 10:18:37;;;;;;;4.10;1.30;;;4.90;99.90;;;;;;4860534;29;20033;-77
2021/01/08 10:21:04;;;;;;;;;;;4.90;99.90;;;;;;4856922;29;20053;-75
2021/01/08 10:23:30;;;;;;;1.90;1.43;;;5.00;99.90;;;;;;4870864;29;20366;-76
2021/01/08 10:26:17;;;;;;;1.85;1.30;;;4.90;99.90;;;;;;4854860;29;20054;-77
2021/01/08 10:28:54;;;;;;;4.78;1.67;;;5.10;99.90;;;;;;4858323;29;20021;-77
2021/01/08 10:31:22;;;;;;;2.22;1.30;;;5.20;99.90;;;;;;4856261;29;20026;-77
2021/01/08 10:33:48;;;;;;;1.50;1.40;;;5.10;99.90;;;;;;4857384;29;20497;-76
2021/01/08 10:36:14;;;;;;;2.85;1.50;;;5.20;99.90;;;;;;4858028;29;20022;-77
2021/01/08 10:38:40;;;;;;;1.38;1.20;;;5.20;99.90;;;;;;4858607;29;20030;-77
2021/01/08 10:41:06;;;;;;;5.10;1.52;;;5.20;99.90;;;;;;4869599;29;20128;-76
2021/01/08 10:43:35;;;;;;;2.80;1.23;;;5.10;99.90;;;;;;4859757;29;20443;-77
2021/01/08 10:46:04;;;;;;;2.13;1.05;;;5.00;99.90;;;;;;4859468;29;20042;-77
2021/01/08 10:48:30;;;;;;;2.08;1.50;;;5.00;99.90;;;;;;4852920;29;20021;-78
2021/01/08 10:50:56;;;;;;;2.17;1.75;;;4.90;99.90;;;;;;4859211;29;20021;-77
2021/01/08 10:53:22;;;;;;;4.88;2.25;;;4.90;99.90;;;;;;4858044;29;20021;-79
2021/01/08 10:55:48;;;;;;;1.90;1.50;;;4.90;99.90;;;;;;4860155;29;20037;-78
2021/01/08 10:58:17;;;;;;;1.23;1.13;;;5.00;99.90;;;;;;4860740;29;20059;-77
2021/01/08 11:00:47;;;;;;;4.10;1.20;;;5.20;99.90;;;;;;4860470;29;20060;-77
2021/01/08 11:03:14;;;;;;;1.60;1.15;;;5.30;99.90;;;;;;4858158;29;20494;-77
2021/01/08 11:05:40;;;;;;;2.03;1.43;;;5.20;99.90;;;;;;4863012;29;20036;-80
2021/01/08 11:08:08;;;;;;;1.33;1.23;;;5.30;99.90;;;;;;4855318;29;20451;-76
2021/01/08 11:10:35;;;;;;;1.50;1.40;;;5.20;99.90;;;;;;4857227;29;20543;-78
2021/01/08 11:13:00;;;;;;;1.92;1.42;;;5.10;99.90;;;;;;4858363;29;20558;-75
2021/01/08 11:15:26;;;;;;;5.80;1.35;;;5.10;99.90;;;;;;4857532;29;20112;-77
2021/01/08 11:17:52;;;;;;;1.67;1.55;;;5.10;99.90;;;;;;4854103;29;20036;-77
2021/01/08 11:20:18;;;;;;;1.23;1.13;;;5.00;99.90;;;;;;4858812;29;20041;-77
2021/01/08 11:22:43;;;;;;;2.85;2.50;;;5.10;99.90;;;;;;4857728;29;20404;-79
2021/01/08 11:25:13;;;;;;;3.45;1.48;;;5.10;99.90;;;;;;4860080;29;20128;-76
2021/01/08 11:27:43;;;;;;;2.28;1.48;;;5.20;99.90;;;;;;4860009;29;20490;-77
2021/01/08 11:30:11;;;;;;;2.42;1.65;;;5.20;99.90;;;;;;4857695;29;20033;-78
2021/01/08 11:32:37;;;;;;;2.00;1.35;;;5.30;99.90;;;;;;4859574;29;20033;-78
2021/01/08 11:35:06;;;;;;;2.00;1.77;;;5.20;99.90;;;;;;4858553;29;20093;-77
2021/01/08 11:37:34;;;;;;;2.20;1.88;;;5.10;99.90;;;;;;4855857;29;20044;-76
2021/01/08 11:39:59;;;;;;;4.20;1.50;;;5.20;99.90;;;;;;4859362;29;20045;-77
2021/01/08 11:42:30;;;;;;;1.55;1.42;;;5.20;99.90;;;;;;4854597;29;20410;-78
2021/01/08 11:44:56;;;;;;;3.50;1.20;;;5.40;99.90;;;;;;4850670;29;20041;-77
2021/01/08 11:47:22;;;;;;;2.25;1.65;;;5.40;99.90;;;;;;4855317;29;20061;-76
2021/01/08 11:49:47;;;;;;;2.63;1.80;;;5.50;99.90;;;;;;4855979;29;20044;-78
2021/01/08 11:52:13;;;;;;;1.90;1.10;;;5.60;99.90;;;;;;4841963;29;20033;-81
2021/01/08 11:54:40;;;;;;;1.35;1.25;;;5.60;99.90;;;;;;4861595;29;20048;-77
2021/01/08 11:57:07;;;;;;;1.45;0.85;;;5.50;99.90;;;;;;4845492;29;20029;-79
2021/01/08 11:59:32;;;;;;;1.65;1.20;;;5.50;99.90;;;;;;4846810;29;20034;-78
2021/01/08 12:02:05;;;;;;;1.27;1.17;;;5.50;99.90;;;;;;4847248;29;20045;-78
2021/01/08 12:04:32;;;;;;;1.75;1.33;;;5.50;99.90;;;;;;4843075;29;20128;-75
2021/01/08 12:06:59;;;;;;;2.38;1.33;;;5.50;99.90;;;;;;4855400;29;20065;-78
2021/01/08 12:09:25;;;;;;;3.70;1.35;;;5.40;99.90;;;;;;4859386;29;20033;-76
2021/01/08 12:12:01;;;;;;;1.80;1.02;;;5.30;99.90;;;;;;4841701;29;20030;-79
2021/01/08 12:14:28;;;;;;;1.42;1.33;;;5.30;99.90;;;;;;4846426;29;20037;-76
2021/01/08 12:16:54;;;;;;;1.42;1.10;;;5.40;99.90;;;;;;4837588;29;20052;-78
2021/01/08 12:19:20;;;;;;;1.08;0.98;;;5.50;99.90;;;;;;4845281;29;20095;-77
2021/01/08 12:21:49;;;;;;;1.23;1.13;;;5.50;99.90;;;;;;4842444;29;20033;-78
2021/01/08 12:24:15;;;;;;;2.95;1.40;;;5.60;99.90;;;;;;4842463;29;20375;-78
2021/01/08 12:26:41;;;;;;;0.80;0.80;;;5.60;99.90;;;;;;4857522;29;20697;-79
2021/01/08 12:29:11;;;;;;;1.75;1.27;;;5.60;99.90;;;;;;4841305;29;20025;-78
2021/01/08 12:31:37;;;;;;;2.00;0.90;;;5.60;99.90;;;;;;4841790;29;20030;-77
2021/01/08 12:34:02;;;;;;;1.67;1.00;;;5.80;99.90;;;;;;4854745;29;20037;-78
2021/01/08 12:36:28;;;;;;;0.77;0.77;;;5.90;99.90;;;;;;4857057;29;20098;-76
2021/01/08 12:39:04;;;;;;;;;;;;;;;;;;;;;
2021/01/08 12:41:31;;;;;;;2.05;1.02;;;5.80;99.90;;;;;;4854142;29;20048;-76
2021/01/08 12:43:58;;;;;;;2.00;0.98;;;5.80;99.90;;;;;;4863282;29;20128;-78
2021/01/08 12:46:23;;;;;;;1.27;1.17;;;5.80;99.90;;;;;;4856140;29;20037;-77
2021/01/08 12:48:49;;;;;;;1.30;1.20;;;5.80;99.90;;;;;;4858583;29;20029;-78
2021/01/08 12:51:15;;;;;;;1.90;1.08;;;5.90;99.90;;;;;;4857253;29;20033;-78
2021/01/08 12:53:42;;;;;;;1.83;1.30;;;5.90;99.90;;;;;;4859070;29;20037;-79
2021/01/08 12:56:10;;;;;;;2.22;1.05;;;6.00;99.90;;;;;;4861872;29;20379;-76
2021/01/08 12:58:36;;;;;;;1.38;1.20;;;6.10;99.90;;;;;;4858443;29;20057;-79
2021/01/08 13:01:03;;;;;;;1.40;1.30;;;6.10;99.90;;;;;;4856341;29;20036;-76
2021/01/08 13:03:29;;;;;;;1.02;0.93;;;6.10;99.90;;;;;;4862221;29;20030;-76
2021/01/08 13:05:54;;;;;;;1.35;1.25;;;5.90;99.90;;;;;;4858680;29;20037;-77
2021/01/08 13:08:20;;;;;;;1.73;1.08;;;5.90;99.90;;;;;;4860120;29;20025;-78
2021/01/08 13:10:49;;;;;;;2.92;1.00;;;5.90;99.90;;;;;;4858862;29;20490;-79
2021/01/08 13:13:15;;;;;;;0.90;0.90;;;5.90;99.90;;;;;;4858155;29;20037;-78
2021/01/08 13:15:41;;;;;;;2.03;1.25;;;6.00;99.90;;;;;;4859020;29;20026;-79
2021/01/08 13:18:09;;;;;;;1.23;1.13;;;6.10;99.90;;;;;;4857296;29;20025;-79